Time;durP1;ratioP1;P1;durP2;ratioP2;P2;SDS_P1;SDS_P2;PMS_P1;PMS_P2;Temp;Humidity;BMP_temperature;BMP_pressure;BME280_temperature;BME280_humidity;BME280_pressure;Samples;Min_cycle;Max_cycle;Signal;HPM_P1;HPM_P2
2022/09/27 00:01:02;;;;;;;2.45;1.05;;;;;;;;;;5030719;28;20046;-79
2022/09/27 00:03:28;;;;;;;4.97;1.50;;;;;;;;;;5031999;28;20049;-79
2022/09/27 00:06:04;;;;;;;5.70;1.23;;;;;;;;;;5032346;28;20077;-77
2022/09/27 00:08:32;;;;;;;2.38;1.35;;;;;;;;;;5013738;28;20068;-80
2022/09/27 00:10:59;;;;;;;3.25;1.30;;;;;;;;;;5013500;28;20270;-80
2022/09/27 00:13:26;;;;;;;3.05;1.20;;;;;;;;;;5031258;28;20092;-79
2022/09/27 00:15:56;;;;;;;3.00;1.40;;;;;;;;;;5031231;28;20058;-80
2022/09/27 00:18:23;;;;;;;2.55;1.00;;;;;;;;;;5031049;28;20059;-79
2022/09/27 00:20:49;;;;;;;1.50;1.00;;;;;;;;;;5031326;28;20390;-79
2022/09/27 00:23:16;;;;;;;2.72;1.35;;;;;;;;;;5032065;28;20186;-79
2022/09/27 00:25:42;;;;;;;2.33;1.40;;;;;;;;;;5031137;28;20053;-79
2022/09/27 00:28:08;;;;;;;4.47;1.38;;;;;;;;;;5030559;28;20755;-80
2022/09/27 00:30:40;;;;;;;3.25;1.15;;;;;;;;;;5034994;28;20162;-79
2022/09/27 00:33:06;;;;;;;3.72;1.40;;;;;;;;;;5051605;28;20046;-78
2022/09/27 00:35:33;;;;;;;2.05;0.98;;;;;;;;;;5022080;28;20042;-80
2022/09/27 00:37:59;;;;;;;5.57;1.13;;;;;;;;;;5031252;28;20413;-80
2022/09/27 00:40:25;;;;;;;5.18;0.90;;;;;;;;;;5034372;28;20096;-80
2022/09/27 00:42:52;;;;;;;2.95;1.13;;;;;;;;;;5034180;28;20120;-79
2022/09/27 00:45:19;;;;;;;2.22;1.00;;;;;;;;;;5034276;28;20049;-80
2022/09/27 00:47:57;;;;;;;2.90;1.10;;;;;;;;;;5033874;28;20045;-79
2022/09/27 00:50:29;;;;;;;3.28;1.25;;;;;;;;;;5033280;28;20057;-79
2022/09/27 00:53:14;;;;;;;2.63;1.10;;;;;;;;;;5034423;28;20071;-80
2022/09/27 00:55:43;;;;;;;2.85;1.13;;;;;;;;;;5034912;28;20045;-80
2022/09/27 00:58:12;;;;;;;3.85;1.00;;;;;;;;;;5048732;28;20079;-79
2022/09/27 01:00:41;;;;;;;5.00;1.10;;;;;;;;;;5072713;28;20108;-78
2022/09/27 01:03:08;;;;;;;2.65;1.10;;;;;;;;;;5051166;28;20088;-78
2022/09/27 01:05:34;;;;;;;6.07;1.17;;;;;;;;;;5039132;28;20064;-79
2022/09/27 01:08:01;;;;;;;2.63;0.98;;;;;;;;;;5054778;28;20080;-79
2022/09/27 01:10:30;;;;;;;2.45;1.10;;;;;;;;;;5053722;28;20049;-80
2022/09/27 01:13:09;;;;;;;2.95;1.20;;;;;;;;;;5053634;28;20395;-78
2022/09/27 01:15:42;;;;;;;4.53;1.20;;;;;;;;;;5052874;28;20493;-79
2022/09/27 01:18:17;;;;;;;3.50;1.05;;;;;;;;;;5052777;28;20496;-79
2022/09/27 01:21:03;;;;;;;5.28;1.05;;;;;;;;;;5053711;28;20056;-79
2022/09/27 01:23:56;;;;;;;2.53;1.15;;;;;;;;;;5054552;28;20131;-79
2022/09/27 01:26:41;;;;;;;3.28;0.90;;;;;;;;;;5016163;28;20049;-78
2022/09/27 01:29:23;;;;;;;4.10;1.30;;;;;;;;;;5035917;28;20041;-79
2022/09/27 01:31:49;;;;;;;3.55;0.80;;;;;;;;;;5053510;28;20057;-79
2022/09/27 01:34:25;;;;;;;3.70;1.40;;;;;;;;;;5052945;28;20052;-80
2022/09/27 01:36:56;;;;;;;3.00;1.20;;;;;;;;;;5052581;28;20507;-79
2022/09/27 01:39:32;;;;;;;2.60;1.15;;;;;;;;;;5054075;28;20076;-78
2022/09/27 01:42:12;;;;;;;3.88;1.20;;;;;;;;;;5053310;28;20060;-79
2022/09/27 01:44:46;;;;;;;6.60;1.20;;;;;;;;;;5053863;28;20049;-80
2022/09/27 01:47:15;;;;;;;4.55;1.15;;;;;;;;;;5052322;28;20547;-79
2022/09/27 01:49:46;;;;;;;3.38;1.20;;;;;;;;;;5052129;28;20049;-80
2022/09/27 01:52:15;;;;;;;3.50;1.23;;;;;;;;;;5054168;28;20057;-79
2022/09/27 01:54:43;;;;;;;2.40;1.08;;;;;;;;;;5053671;28;20048;-79
2022/09/27 01:57:12;;;;;;;6.03;1.20;;;;;;;;;;5056116;28;20048;-78
2022/09/27 01:59:48;;;;;;;2.47;1.25;;;;;;;;;;5040640;28;20117;-80
2022/09/27 02:02:16;;;;;;;4.57;1.20;;;;;;;;;;5039737;28;20056;-80
2022/09/27 02:04:43;;;;;;;4.13;1.65;;;;;;;;;;5021508;28;20144;-79
2022/09/27 02:07:15;;;;;;;3.53;1.25;;;;;;;;;;5039591;28;20107;-80
2022/09/27 02:09:51;;;;;;;7.45;1.08;;;;;;;;;;5039130;28;20056;-79
2022/09/27 02:12:18;;;;;;;;;;;;;;;;;;5040593;28;20056;-79
2022/09/27 02:14:58;;;;;;;2.28;1.15;;;;;;;;;;5040488;28;19952;-80
2022/09/27 02:17:43;;;;;;;8.02;1.25;;;;;;;;;;5041386;28;20045;-79
2022/09/27 02:20:13;;;;;;;2.53;1.40;;;;;;;;;;5046472;28;20041;-79
2022/09/27 02:22:58;;;;;;;2.10;1.25;;;;;;;;;;5034664;28;20059;-79
2022/09/27 02:25:24;;;;;;;5.95;1.20;;;;;;;;;;5033380;28;20500;-79
2022/09/27 02:27:50;;;;;;;3.15;1.33;;;;;;;;;;5016664;28;20084;-79
2022/09/27 02:30:17;;;;;;;3.28;1.55;;;;;;;;;;5033596;28;20120;-79
2022/09/27 02:32:43;;;;;;;5.50;1.30;;;;;;;;;;5032480;28;20049;-78
2022/09/27 02:35:13;;;;;;;8.23;1.30;;;;;;;;;;5030841;28;20398;-79
2022/09/27 02:37:42;;;;;;;3.45;1.35;;;;;;;;;;5031381;28;20063;-79
2022/09/27 02:40:09;;;;;;;3.63;1.33;;;;;;;;;;5031985;28;20049;-78
2022/09/27 02:42:36;;;;;;;3.42;1.23;;;;;;;;;;5032095;28;20041;-77
2022/09/27 02:45:03;;;;;;;3.03;1.33;;;;;;;;;;5031595;28;20448;-77
2022/09/27 02:47:47;;;;;;;4.80;1.27;;;;;;;;;;5031054;28;20049;-78
2022/09/27 02:50:25;;;;;;;4.72;1.40;;;;;;;;;;5030660;28;20411;-78
2022/09/27 02:52:54;;;;;;;3.33;1.60;;;;;;;;;;5036154;28;20145;-77
2022/09/27 02:55:20;;;;;;;3.47;1.40;;;;;;;;;;5037809;28;20053;-79
2022/09/27 02:58:09;;;;;;;3.95;1.33;;;;;;;;;;5018691;28;20044;-76
2022/09/27 03:00:42;;;;;;;2.72;1.30;;;;;;;;;;5033419;28;20059;-79
2022/09/27 03:03:12;;;;;;;3.22;1.20;;;;;;;;;;5049985;28;20083;-78
2022/09/27 03:05:44;;;;;;;2.58;1.25;;;;;;;;;;5051927;28;20050;-79
2022/09/27 03:08:11;;;;;;;2.50;1.15;;;;;;;;;;5050891;28;20055;-79
2022/09/27 03:10:37;;;;;;;4.50;1.55;;;;;;;;;;5052115;28;20072;-79
2022/09/27 03:13:04;;;;;;;5.78;1.50;;;;;;;;;;5051735;28;20497;-80
2022/09/27 03:15:30;;;;;;;2.22;1.30;;;;;;;;;;5053051;28;20063;-78
2022/09/27 03:17:57;;;;;;;3.05;1.13;;;;;;;;;;5051846;28;20531;-80
2022/09/27 03:20:23;;;;;;;2.63;1.20;;;;;;;;;;5052143;28;20049;-79
2022/09/27 03:22:49;;;;;;;3.33;1.25;;;;;;;;;;5035511;28;20048;-78
2022/09/27 03:25:16;;;;;;;3.42;1.20;;;;;;;;;;5037007;28;20165;-80
2022/09/27 03:27:43;;;;;;;2.20;1.08;;;;;;;;;;5031979;28;20042;-80
2022/09/27 03:30:09;;;;;;;4.30;1.40;;;;;;;;;;5033315;28;20050;-80
2022/09/27 03:32:36;;;;;;;4.78;1.30;;;;;;;;;;5016523;28;20042;-79
2022/09/27 03:35:08;;;;;;;3.75;1.63;;;;;;;;;;5012636;28;20050;-78
2022/09/27 03:37:35;;;;;;;3.63;1.70;;;;;;;;;;5012473;28;20049;-79
2022/09/27 03:40:01;;;;;;;4.32;1.75;;;;;;;;;;5013485;28;20060;-80
2022/09/27 03:42:27;;;;;;;6.00;1.45;;;;;;;;;;5012813;28;20053;-79
2022/09/27 03:44:54;;;;;;;6.35;1.80;;;;;;;;;;5013773;28;20057;-80
2022/09/27 03:47:21;;;;;;;8.85;1.95;;;;;;;;;;5014493;28;20196;-79
2022/09/27 03:49:47;;;;;;;6.40;2.10;;;;;;;;;;4995867;28;20393;-79
2022/09/27 03:52:14;;;;;;;3.35;1.80;;;;;;;;;;5014627;28;20060;-79
2022/09/27 03:54:41;;;;;;;4.97;2.17;;;;;;;;;;5012748;28;20049;-79
2022/09/27 03:57:08;;;;;;;6.05;1.75;;;;;;;;;;5010573;28;20069;-80
2022/09/27 03:59:34;;;;;;;6.18;2.35;;;;;;;;;;5011847;28;20145;-79
2022/09/27 04:02:00;;;;;;;5.45;1.98;;;;;;;;;;5010991;28;20498;-79
2022/09/27 04:04:27;;;;;;;4.25;2.20;;;;;;;;;;4993500;28;20054;-80
2022/09/27 04:06:53;;;;;;;5.32;2.17;;;;;;;;;;5009359;28;20054;-79
2022/09/27 04:09:20;;;;;;;3.95;2.08;;;;;;;;;;5018482;28;20051;-81
2022/09/27 04:11:47;;;;;;;6.28;2.05;;;;;;;;;;5029652;28;20049;-79
2022/09/27 04:14:14;;;;;;;2.40;1.50;;;;;;;;;;5034106;28;20045;-79
2022/09/27 04:16:40;;;;;;;3.47;2.05;;;;;;;;;;5016135;28;20057;-82
2022/09/27 04:19:07;;;;;;;6.95;1.90;;;;;;;;;;5037383;28;20088;-79
2022/09/27 04:21:34;;;;;;;5.05;1.90;;;;;;;;;;5047475;28;20423;-78
2022/09/27 04:24:04;;;;;;;3.95;1.65;;;;;;;;;;5048725;28;20477;-80
2022/09/27 04:26:30;;;;;;;3.80;2.22;;;;;;;;;;5035254;28;20083;-78
2022/09/27 04:28:57;;;;;;;11.73;2.03;;;;;;;;;;5033719;28;20049;-80
2022/09/27 04:31:23;;;;;;;3.10;1.70;;;;;;;;;;5033063;28;20469;-80
2022/09/27 04:33:50;;;;;;;5.25;1.83;;;;;;;;;;5031718;28;20049;-81
2022/09/27 04:36:27;;;;;;;4.85;2.00;;;;;;;;;;5016630;28;20351;-80
2022/09/27 04:39:04;;;;;;;7.07;2.30;;;;;;;;;;5034465;28;20069;-79
2022/09/27 04:41:30;;;;;;;6.68;2.20;;;;;;;;;;5015571;28;20071;-79
2022/09/27 04:43:59;;;;;;;6.20;2.08;;;;;;;;;;5015685;28;20049;-79
2022/09/27 04:46:30;;;;;;;3.72;2.13;;;;;;;;;;5033971;28;20049;-81
2022/09/27 04:49:00;;;;;;;5.47;1.92;;;;;;;;;;5015391;28;20140;-79
2022/09/27 04:51:26;;;;;;;4.93;2.10;;;;;;;;;;5015948;28;20061;-80
2022/09/27 04:53:54;;;;;;;4.75;2.20;;;;;;;;;;5033561;28;20045;-80
2022/09/27 04:56:21;;;;;;;4.00;1.90;;;;;;;;;;5032795;28;20054;-80
2022/09/27 04:58:47;;;;;;;7.35;2.20;;;;;;;;;;5046570;28;20049;-80
2022/09/27 05:01:13;;;;;;;3.95;2.20;;;;;;;;;;5057755;28;20063;-79
2022/09/27 05:03:40;;;;;;;4.85;2.10;;;;;;;;;;5053170;28;20433;-79
2022/09/27 05:06:07;;;;;;;6.53;2.22;;;;;;;;;;5054291;28;20080;-79
2022/09/27 05:08:33;;;;;;;3.90;2.17;;;;;;;;;;5054282;28;20063;-78
2022/09/27 05:11:00;;;;;;;4.75;1.95;;;;;;;;;;5053820;28;20053;-80
2022/09/27 05:13:26;;;;;;;5.90;2.38;;;;;;;;;;5054217;28;20045;-79
2022/09/27 05:15:53;;;;;;;4.20;2.30;;;;;;;;;;5056600;28;20044;-80
2022/09/27 05:18:19;;;;;;;3.88;2.53;;;;;;;;;;5068037;28;20467;-79
2022/09/27 05:20:46;;;;;;;3.88;2.17;;;;;;;;;;5062361;28;20075;-79
2022/09/27 05:23:12;;;;;;;3.85;1.88;;;;;;;;;;5057923;28;20095;-79
2022/09/27 05:25:38;;;;;;;3.33;2.05;;;;;;;;;;5063999;28;20056;-79
2022/09/27 05:28:05;;;;;;;4.03;2.13;;;;;;;;;;5055797;28;20530;-80
2022/09/27 05:30:31;;;;;;;2.80;1.83;;;;;;;;;;5054125;28;20068;-79
2022/09/27 05:32:58;;;;;;;3.47;2.00;;;;;;;;;;5037035;28;20071;-80
2022/09/27 05:35:25;;;;;;;2.78;2.00;;;;;;;;;;5053471;28;20073;-80
2022/09/27 05:37:52;;;;;;;4.13;1.80;;;;;;;;;;5053362;28;20132;-79
2022/09/27 05:40:18;;;;;;;2.83;1.80;;;;;;;;;;5036113;28;20060;-79
2022/09/27 05:43:04;;;;;;;3.25;1.98;;;;;;;;;;5037309;28;20546;-79
2022/09/27 05:45:31;;;;;;;3.30;2.10;;;;;;;;;;5053915;28;20314;-80
2022/09/27 05:47:57;;;;;;;3.35;1.73;;;;;;;;;;5052056;28;20443;-82
2022/09/27 05:50:25;;;;;;;3.45;1.90;;;;;;;;;;5052988;28;20053;-81
2022/09/27 05:52:52;;;;;;;4.85;1.90;;;;;;;;;;5053502;28;20055;-81
2022/09/27 05:55:18;;;;;;;4.75;1.98;;;;;;;;;;5054204;28;20102;-79
2022/09/27 05:57:58;;;;;;;2.88;1.63;;;;;;;;;;5032082;28;20053;-81
2022/09/27 06:00:26;;;;;;;5.50;1.70;;;;;;;;;;5015430;28;20121;-79
2022/09/27 06:02:53;;;;;;;2.90;1.63;;;;;;;;;;5032865;28;20060;-79
2022/09/27 06:05:20;;;;;;;2.63;1.73;;;;;;;;;;5032929;28;20118;-80
2022/09/27 06:07:48;;;;;;;4.40;1.83;;;;;;;;;;5034158;28;20057;-80
2022/09/27 06:10:16;;;;;;;2.67;1.70;;;;;;;;;;5017791;28;20083;-79
2022/09/27 06:12:42;;;;;;;2.45;1.30;;;;;;;;;;5032274;28;20402;-79
2022/09/27 06:15:09;;;;;;;2.85;1.55;;;;;;;;;;5032513;28;20049;-79
2022/09/27 06:17:35;;;;;;;3.83;1.42;;;;;;;;;;5014798;28;20055;-80
2022/09/27 06:20:02;;;;;;;2.80;1.48;;;;;;;;;;5034244;28;20075;-80
2022/09/27 06:22:28;;;;;;;6.22;1.52;;;;;;;;;;5035552;28;20056;-81
2022/09/27 06:24:55;;;;;;;2.63;1.58;;;;;;;;;;5019532;28;20055;-80
2022/09/27 06:27:21;;;;;;;2.70;1.50;;;;;;;;;;5031270;28;20049;-80
2022/09/27 06:29:47;;;;;;;4.65;1.30;;;;;;;;;;5032378;28;20042;-78
2022/09/27 06:32:14;;;;;;;2.20;1.30;;;;;;;;;;5031657;28;20056;-80
2022/09/27 06:34:40;;;;;;;2.38;1.20;;;;;;;;;;5013519;28;20052;-78
2022/09/27 06:37:07;;;;;;;2.33;1.05;;;;;;;;;;5031631;28;20041;-80
2022/09/27 06:39:36;;;;;;;2.30;1.20;;;;;;;;;;5032907;28;20053;-79
2022/09/27 06:42:02;;;;;;;2.20;1.20;;;;;;;;;;5022742;28;20061;-79
2022/09/27 06:44:28;;;;;;;2.55;1.20;;;;;;;;;;5039507;28;20050;-80
2022/09/27 06:46:55;;;;;;;3.83;0.90;;;;;;;;;;5038562;28;20108;-79
2022/09/27 06:49:22;;;;;;;1.60;1.02;;;;;;;;;;5035588;28;20136;-80
2022/09/27 06:51:49;;;;;;;3.38;1.38;;;;;;;;;;5034948;28;20046;-79
2022/09/27 06:54:15;;;;;;;1.40;0.90;;;;;;;;;;5036899;28;20105;-79
2022/09/27 06:56:41;;;;;;;1.13;0.80;;;;;;;;;;5040324;28;20057;-80
2022/09/27 07:02:03;;;;;;;1.80;0.80;;;;;;;;;;5004452;28;20511;-79
2022/09/27 07:04:31;;;;;;;1.23;0.70;;;;;;;;;;5058480;28;20199;-80
2022/09/27 07:06:57;;;;;;;2.83;0.75;;;;;;;;;;5061982;28;20059;-80
2022/09/27 07:09:24;;;;;;;1.17;0.70;;;;;;;;;;5043316;28;20103;-79
2022/09/27 07:11:54;;;;;;;1.52;0.80;;;;;;;;;;5033234;28;20061;-80
2022/09/27 07:14:20;;;;;;;0.93;0.60;;;;;;;;;;5051584;28;20127;-80
2022/09/27 07:16:47;;;;;;;2.47;0.57;;;;;;;;;;5049987;28;20056;-80
2022/09/27 07:19:14;;;;;;;2.38;0.50;;;;;;;;;;5032841;28;20057;-79
2022/09/27 07:21:40;;;;;;;1.88;0.50;;;;;;;;;;5050858;28;20612;-80
2022/09/27 07:24:06;;;;;;;1.98;0.60;;;;;;;;;;5050527;28;20095;-80
2022/09/27 07:26:33;;;;;;;0.93;0.50;;;;;;;;;;5049931;28;20049;-79
2022/09/27 07:29:00;;;;;;;1.23;0.63;;;;;;;;;;5050783;28;20055;-81
2022/09/27 07:31:27;;;;;;;1.13;0.45;;;;;;;;;;5050879;28;20041;-79
2022/09/27 07:33:54;;;;;;;1.45;0.40;;;;;;;;;;5051032;28;20048;-80
2022/09/27 07:36:20;;;;;;;0.50;0.40;;;;;;;;;;5053321;28;20521;-80
2022/09/27 07:38:46;;;;;;;0.82;0.50;;;;;;;;;;5058167;28;20047;-78
2022/09/27 07:41:13;;;;;;;1.45;0.60;;;;;;;;;;5061153;28;20048;-80
2022/09/27 07:43:40;;;;;;;2.40;0.57;;;;;;;;;;5071554;28;20382;-80
2022/09/27 07:46:07;;;;;;;2.25;0.63;;;;;;;;;;5071279;28;20112;-81
2022/09/27 07:48:33;;;;;;;1.00;0.45;;;;;;;;;;5056576;28;20052;-81
2022/09/27 07:51:00;;;;;;;3.47;0.50;;;;;;;;;;5057086;28;20069;-80
2022/09/27 07:53:26;;;;;;;1.45;0.90;;;;;;;;;;5057507;28;20049;-79
2022/09/27 07:55:53;;;;;;;0.40;0.30;;;;;;;;;;5038469;28;20048;-78
2022/09/27 07:58:19;;;;;;;0.43;0.40;;;;;;;;;;5046970;28;20067;-79
2022/09/27 08:00:46;;;;;;;0.68;0.35;;;;;;;;;;5018900;28;20051;-79
2022/09/27 08:03:16;;;;;;;0.30;0.30;;;;;;;;;;5020378;28;20069;-79
2022/09/27 08:05:43;;;;;;;2.85;1.08;;;;;;;;;;5042414;28;20288;-79
2022/09/27 08:08:10;;;;;;;0.80;0.40;;;;;;;;;;5038457;28;20045;-81
2022/09/27 08:10:38;;;;;;;1.25;0.50;;;;;;;;;;5038573;28;20053;-80
2022/09/27 08:13:05;;;;;;;0.88;0.50;;;;;;;;;;5039173;28;20064;-79
2022/09/27 08:15:32;;;;;;;1.15;0.40;;;;;;;;;;5020742;28;20054;-81
2022/09/27 08:17:58;;;;;;;2.15;0.35;;;;;;;;;;5037370;28;20049;-80
2022/09/27 08:20:24;;;;;;;1.67;0.40;;;;;;;;;;5037863;28;20061;-81
2022/09/27 08:22:51;;;;;;;0.90;0.45;;;;;;;;;;5020038;28;20053;-79
2022/09/27 08:25:17;;;;;;;1.10;0.50;;;;;;;;;;5037862;28;20173;-79
2022/09/27 08:27:53;;;;;;;1.48;0.50;;;;;;;;;;5037394;28;20049;-80
2022/09/27 08:30:19;;;;;;;2.08;0.55;;;;;;;;;;5038178;28;20045;-80
2022/09/27 08:32:45;;;;;;;0.85;0.30;;;;;;;;;;5037821;28;20057;-81
2022/09/27 08:35:14;;;;;;;0.60;0.40;;;;;;;;;;5019753;28;20061;-80
2022/09/27 08:37:40;;;;;;;1.70;0.60;;;;;;;;;;5019335;28;20072;-78
2022/09/27 08:40:09;;;;;;;3.00;0.50;;;;;;;;;;5037319;28;20054;-79
2022/09/27 08:42:41;;;;;;;1.10;0.50;;;;;;;;;;5036226;28;20049;-80
2022/09/27 08:45:22;;;;;;;2.13;0.63;;;;;;;;;;5037133;28;20049;-79
2022/09/27 08:47:52;;;;;;;0.93;0.40;;;;;;;;;;5035443;28;20360;-80
2022/09/27 08:50:35;;;;;;;2.58;0.55;;;;;;;;;;5019337;28;20045;-79
2022/09/27 08:53:23;;;;;;;1.77;0.55;;;;;;;;;;5020091;28;20087;-79
2022/09/27 08:55:52;;;;;;;4.88;0.98;;;;;;;;;;5036368;28;20045;-80
2022/09/27 08:58:24;;;;;;;3.13;0.50;;;;;;;;;;5043896;28;20041;-80
2022/09/27 09:00:54;;;;;;;4.15;0.70;;;;;;;;;;5034853;28;20136;-79
2022/09/27 09:03:23;;;;;;;1.30;0.50;;;;;;;;;;5052297;28;20106;-79
2022/09/27 09:05:55;;;;;;;1.02;0.50;;;;;;;;;;5035023;28;20059;-79
2022/09/27 09:08:53;;;;;;;1.92;0.50;;;;;;;;;;5052255;28;20053;-79
2022/09/27 09:14:04;;;;;;;1.15;0.50;;;;;;;;;;5052188;28;20056;-80
2022/09/27 09:16:37;;;;;;;1.05;0.57;;;;;;;;;;5035184;28;20056;-80
2022/09/27 09:19:30;;;;;;;0.68;0.47;;;;;;;;;;5052372;28;20540;-79
2022/09/27 09:21:56;;;;;;;1.00;0.70;;;;;;;;;;5052595;28;20049;-80
2022/09/27 09:24:42;;;;;;;1.67;0.40;;;;;;;;;;5052080;28;20063;-78
2022/09/27 09:27:21;;;;;;;2.35;0.22;;;;;;;;;;5032819;28;20059;-78
2022/09/27 09:29:56;;;;;;;3.95;0.30;;;;;;;;;;5051877;28;20160;-78
2022/09/27 09:32:26;;;;;;;1.70;0.40;;;;;;;;;;5052728;28;20045;-79
2022/09/27 09:35:13;;;;;;;0.57;0.30;;;;;;;;;;5035333;28;20056;-78
2022/09/27 09:37:43;;;;;;;0.80;0.30;;;;;;;;;;5051995;28;20402;-79
2022/09/27 09:40:25;;;;;;;0.68;0.28;;;;;;;;;;5051423;28;20102;-79
2022/09/27 09:42:57;;;;;;;4.93;0.40;;;;;;;;;;5052181;28;20045;-80
2022/09/27 09:45:29;;;;;;;1.38;0.35;;;;;;;;;;5055410;28;20084;-81
2022/09/27 09:48:06;;;;;;;0.45;0.20;;;;;;;;;;5053309;28;20093;-80
2022/09/27 09:50:41;;;;;;;2.10;0.30;;;;;;;;;;5052380;28;20056;-80
2022/09/27 09:53:11;;;;;;;1.73;0.43;;;;;;;;;;5052740;28;20120;-80
2022/09/27 09:55:39;;;;;;;0.80;0.40;;;;;;;;;;5053124;28;20363;-78
2022/09/27 09:58:24;;;;;;;0.68;0.35;;;;;;;;;;5044576;28;20045;-79
2022/09/27 10:00:52;;;;;;;4.00;0.40;;;;;;;;;;5034234;28;20175;-76
2022/09/27 10:03:19;;;;;;;1.45;0.80;;;;;;;;;;5019969;28;20096;-79
2022/09/27 10:05:46;;;;;;;2.15;0.40;;;;;;;;;;5043360;28;20060;-79
2022/09/27 10:08:19;;;;;;;0.77;0.32;;;;;;;;;;5047463;28;20045;-79
2022/09/27 10:10:45;;;;;;;1.23;0.45;;;;;;;;;;5041913;28;20045;-80
2022/09/27 10:13:16;;;;;;;0.82;0.43;;;;;;;;;;5037189;28;20056;-79
2022/09/27 10:15:44;;;;;;;0.63;0.30;;;;;;;;;;5039037;28;20046;-79
2022/09/27 10:18:13;;;;;;;4.55;0.60;;;;;;;;;;5040432;28;20059;-77
2022/09/27 10:20:45;;;;;;;3.25;0.50;;;;;;;;;;5023274;28;20317;-79
2022/09/27 10:23:13;;;;;;;0.90;0.55;;;;;;;;;;5019610;28;20056;-78
2022/09/27 10:25:48;;;;;;;1.58;0.50;;;;;;;;;;5022124;28;20053;-80
2022/09/27 10:28:35;;;;;;;0.88;0.50;;;;;;;;;;5039037;28;20053;-80
2022/09/27 10:31:09;;;;;;;1.33;0.40;;;;;;;;;;5038808;28;20090;-79
2022/09/27 10:33:36;;;;;;;0.82;0.47;;;;;;;;;;5036584;28;20047;-80
2022/09/27 10:36:03;;;;;;;1.25;0.32;;;;;;;;;;5036993;28;20083;-78
2022/09/27 10:38:31;;;;;;;0.65;0.32;;;;;;;;;;5030846;28;20053;-79
2022/09/27 10:41:15;;;;;;;0.55;0.40;;;;;;;;;;5013549;28;20057;-81
2022/09/27 10:43:42;;;;;;;1.13;0.40;;;;;;;;;;5013546;28;20050;-79
2022/09/27 10:46:12;;;;;;;1.08;0.50;;;;;;;;;;5013965;28;20472;-78
2022/09/27 10:48:40;;;;;;;1.45;0.50;;;;;;;;;;5012229;28;20050;-79
2022/09/27 10:51:20;;;;;;;1.85;0.50;;;;;;;;;;5031362;28;20042;-81
2022/09/27 10:53:47;;;;;;;0.70;0.40;;;;;;;;;;5033506;28;20056;-81
2022/09/27 10:56:25;;;;;;;4.28;0.50;;;;;;;;;;5032526;28;20057;-79
2022/09/27 10:58:51;;;;;;;2.63;0.80;;;;;;;;;;5032096;28;20060;-79
2022/09/27 11:01:18;;;;;;;0.90;0.50;;;;;;;;;;5033843;28;20049;-80
2022/09/27 11:03:53;;;;;;;1.63;0.70;;;;;;;;;;5048275;28;20505;-79
2022/09/27 11:06:22;;;;;;;3.22;0.68;;;;;;;;;;5053860;28;20067;-79
2022/09/27 11:08:50;;;;;;;3.58;0.73;;;;;;;;;;5040333;28;20053;-79
2022/09/27 11:11:18;;;;;;;0.95;0.50;;;;;;;;;;5032323;28;20160;-79
2022/09/27 11:14:03;;;;;;;1.25;0.47;;;;;;;;;;5032755;28;20053;-79
2022/09/27 11:16:33;;;;;;;1.58;0.45;;;;;;;;;;5031079;28;20563;-78
2022/09/27 11:19:08;;;;;;;0.45;0.38;;;;;;;;;;5030702;28;20055;-79
2022/09/27 11:22:00;;;;;;;0.90;0.40;;;;;;;;;;5030947;28;20057;-79
2022/09/27 11:24:27;;;;;;;;;;;;;;;;;;5031141;28;20049;-79
2022/09/27 11:26:56;;;;;;;1.05;0.35;;;;;;;;;;5030872;28;19925;-78
2022/09/27 11:29:39;;;;;;;1.75;0.40;;;;;;;;;;5033294;28;20049;-79
2022/09/27 11:32:27;;;;;;;1.13;0.28;;;;;;;;;;5034376;28;20084;-80
2022/09/27 11:35:12;;;;;;;0.45;0.30;;;;;;;;;;5019290;28;20504;-79
2022/09/27 11:37:48;;;;;;;2.17;0.43;;;;;;;;;;5029352;28;20053;-79
2022/09/27 11:40:14;;;;;;;0.45;0.45;;;;;;;;;;5030017;28;20053;-79
2022/09/27 11:42:59;;;;;;;1.05;0.50;;;;;;;;;;5030392;28;20063;-80
2022/09/27 11:45:47;;;;;;;1.48;0.60;;;;;;;;;;5031733;28;20061;-81
2022/09/27 11:48:39;;;;;;;0.88;0.45;;;;;;;;;;5029448;28;20041;-78
2022/09/27 11:51:21;;;;;;;3.13;0.50;;;;;;;;;;5030126;28;20046;-78
2022/09/27 11:54:06;;;;;;;1.50;0.57;;;;;;;;;;5012690;28;20056;-78
2022/09/27 11:56:41;;;;;;;1.25;0.50;;;;;;;;;;5011408;28;20393;-77
2022/09/27 11:59:08;;;;;;;1.58;0.47;;;;;;;;;;5046494;28;20111;-79
2022/09/27 12:01:58;;;;;;;1.20;0.60;;;;;;;;;;5050733;28;20531;-80
2022/09/27 12:04:35;;;;;;;3.95;0.70;;;;;;;;;;5032806;28;20712;-82
2022/09/27 12:07:10;;;;;;;1.55;0.57;;;;;;;;;;5050450;28;20088;-81
2022/09/27 12:09:37;;;;;;;;;;;;;;;;;;5050476;28;20052;-81
2022/09/27 12:12:05;;;;;;;1.23;0.50;;;;;;;;;;5050285;28;19921;-82
2022/09/27 12:14:51;;;;;;;4.45;0.50;;;;;;;;;;5051462;28;20074;-83
2022/09/27 12:17:26;;;;;;;1.83;0.52;;;;;;;;;;5033950;28;20417;-81
2022/09/27 12:19:54;;;;;;;1.58;0.80;;;;;;;;;;5051286;28;20155;-82
2022/09/27 12:22:27;;;;;;;0.90;0.65;;;;;;;;;;5052415;28;20217;-82
2022/09/27 12:25:15;;;;;;;0.95;0.60;;;;;;;;;;5052831;28;20045;-82
2022/09/27 12:27:50;;;;;;;1.23;0.50;;;;;;;;;;5054139;28;20111;-80
2022/09/27 12:30:16;;;;;;;2.65;0.80;;;;;;;;;;5070108;28;20044;-81
2022/09/27 12:32:48;;;;;;;1.98;0.90;;;;;;;;;;5057843;28;20143;-83
2022/09/27 12:35:23;;;;;;;1.30;0.68;;;;;;;;;;5034141;28;20136;-82
2022/09/27 12:37:50;;;;;;;1.02;0.60;;;;;;;;;;5054828;28;20053;-80
2022/09/27 12:40:20;;;;;;;1.73;0.85;;;;;;;;;;5054813;28;20076;-81
2022/09/27 12:42:51;;;;;;;1.20;0.60;;;;;;;;;;5054143;28;20300;-82
2022/09/27 12:45:24;;;;;;;2.67;0.73;;;;;;;;;;5038365;28;20159;-81
2022/09/27 12:48:05;;;;;;;1.15;0.80;;;;;;;;;;5037225;28;20124;-84
2022/09/27 12:50:32;;;;;;;1.40;0.80;;;;;;;;;;5037637;28;20041;-83
2022/09/27 12:53:04;;;;;;;1.52;0.68;;;;;;;;;;5056436;28;20053;-82
2022/09/27 12:55:43;;;;;;;2.00;0.60;;;;;;;;;;5057929;28;20511;-82
2022/09/27 12:58:28;;;;;;;0.68;0.35;;;;;;;;;;5051752;28;20048;-81
2022/09/27 13:00:59;;;;;;;0.73;0.40;;;;;;;;;;5035004;28;20054;-81
2022/09/27 13:03:44;;;;;;;1.48;0.40;;;;;;;;;;5034840;28;20584;-81
2022/09/27 13:06:11;;;;;;;0.60;0.40;;;;;;;;;;5034378;28;20063;-81
2022/09/27 13:08:53;;;;;;;3.30;0.30;;;;;;;;;;5013682;28;20049;-80
2022/09/27 13:11:35;;;;;;;1.23;0.55;;;;;;;;;;5027965;28;20045;-81
2022/09/27 13:14:03;;;;;;;0.95;0.60;;;;;;;;;;5026661;28;20042;-80
2022/09/27 13:16:29;;;;;;;1.73;0.50;;;;;;;;;;5008893;28;20046;-78
2022/09/27 13:19:00;;;;;;;1.38;0.50;;;;;;;;;;5004790;28;20365;-80
2022/09/27 13:21:48;;;;;;;1.33;0.60;;;;;;;;;;5026122;28;20050;-80
2022/09/27 13:24:30;;;;;;;1.10;0.65;;;;;;;;;;5025551;28;20476;-81
2022/09/27 13:27:00;;;;;;;1.52;0.80;;;;;;;;;;5005404;28;20050;-82
2022/09/27 13:29:28;;;;;;;0.70;0.60;;;;;;;;;;5022479;28;20050;-81
2022/09/27 13:31:56;;;;;;;1.90;0.80;;;;;;;;;;5024854;28;20042;-82
2022/09/27 13:34:45;;;;;;;2.58;0.90;;;;;;;;;;5021465;28;20046;-82
2022/09/27 13:37:38;;;;;;;4.07;1.00;;;;;;;;;;5021306;28;20105;-81
2022/09/27 13:40:28;;;;;;;1.73;1.00;;;;;;;;;;5004934;28;20137;-81
2022/09/27 13:43:01;;;;;;;0.93;0.65;;;;;;;;;;5010516;28;20049;-81
2022/09/27 13:45:31;;;;;;;1.45;0.75;;;;;;;;;;5027686;28;20046;-80
2022/09/27 13:47:58;;;;;;;1.73;0.80;;;;;;;;;;5023342;28;20045;-80
2022/09/27 13:50:35;;;;;;;2.60;0.80;;;;;;;;;;5020274;28;20056;-79
2022/09/27 13:53:16;;;;;;;1.00;0.60;;;;;;;;;;5021853;28;20038;-81
2022/09/27 13:55:47;;;;;;;1.52;0.80;;;;;;;;;;5003885;28;20052;-80
2022/09/27 13:58:28;;;;;;;1.00;0.52;;;;;;;;;;5028588;28;20064;-80
2022/09/27 14:00:57;;;;;;;1.92;0.85;;;;;;;;;;5025099;28;20149;-81
2022/09/27 14:03:24;;;;;;;1.52;1.13;;;;;;;;;;5022216;28;20389;-81
2022/09/27 14:05:50;;;;;;;2.58;0.90;;;;;;;;;;5024383;28;20501;-80
2022/09/27 14:08:24;;;;;;;4.18;1.10;;;;;;;;;;5023446;28;20042;-81
2022/09/27 14:10:51;;;;;;;2.33;0.80;;;;;;;;;;5002645;28;20041;-81
2022/09/27 14:13:19;;;;;;;2.22;0.95;;;;;;;;;;5022899;28;20038;-80
2022/09/27 14:15:46;;;;;;;1.73;0.57;;;;;;;;;;5004047;28;20137;-80
2022/09/27 14:18:13;;;;;;;2.60;0.50;;;;;;;;;;5022131;28;20480;-80
2022/09/27 14:20:48;;;;;;;2.15;0.50;;;;;;;;;;5007464;28;20092;-81
2022/09/27 14:23:17;;;;;;;3.55;0.90;;;;;;;;;;5022159;28;20379;-80
2022/09/27 14:25:44;;;;;;;2.88;0.80;;;;;;;;;;5042326;28;20040;-80
2022/09/27 14:28:37;;;;;;;2.03;1.10;;;;;;;;;;5024576;28;20029;-81
2022/09/27 14:31:14;;;;;;;1.88;1.30;;;;;;;;;;5022278;28;20501;-80
2022/09/27 14:33:41;;;;;;;2.65;1.30;;;;;;;;;;5026594;28;20056;-80
2022/09/27 14:39:00;;;;;;;4.75;1.45;;;;;;;;;;5026308;28;20095;-80
2022/09/27 14:41:34;;;;;;;2.90;1.20;;;;;;;;;;5021893;28;20072;-82
2022/09/27 14:44:00;;;;;;;6.22;1.27;;;;;;;;;;5021828;28;20060;-82
2022/09/27 14:46:28;;;;;;;2.55;1.30;;;;;;;;;;5027225;28;20045;-80
2022/09/27 14:48:55;;;;;;;1.90;1.40;;;;;;;;;;5036916;28;20071;-81
2022/09/27 14:51:29;;;;;;;3.25;1.40;;;;;;;;;;5029897;28;20475;-79
2022/09/27 14:53:59;;;;;;;2.50;1.25;;;;;;;;;;5041408;28;20090;-81
2022/09/27 14:56:29;;;;;;;2.95;1.40;;;;;;;;;;5033337;28;20054;-81
2022/09/27 14:59:15;;;;;;;5.65;1.60;;;;;;;;;;5015110;28;20053;-79
2022/09/27 15:01:49;;;;;;;4.78;1.30;;;;;;;;;;5032916;28;20061;-81
2022/09/27 15:04:16;;;;;;;2.42;1.67;;;;;;;;;;5031391;28;20075;-80
2022/09/27 15:06:44;;;;;;;5.32;1.55;;;;;;;;;;5030883;28;20053;-80
2022/09/27 15:09:12;;;;;;;4.03;1.73;;;;;;;;;;5033315;28;20065;-81
2022/09/27 15:11:40;;;;;;;6.45;2.25;;;;;;;;;;5015015;28;20049;-81
2022/09/27 15:14:12;;;;;;;14.73;4.97;;;;;;;;;;5032342;28;20739;-79